LFJL/ETZ METAR and TAF weather

Enter ICAO airport designator
Station Type Date Time Source
LFJL METAR 2023/06/03 23:30 UTC NOAA

LFJL 032330Z AUTO 03005KT CAVOK 14/07 Q1017 NOSIG


Station Type Date Time Source
LFJL Decoded METAR 2023/06/03 23:30 UTC NOAA

Metz-Nancy-Lorraine, France (LFJL) 48-59N 006-15E
Jun 03, 2023 - 07:30 PM EDT / 2023.06.03 2330 UTC
Wind: from the NNE (030 degrees) at 6 MPH (5 KT):0
Visibility: greater than 7 mile(s):0
Temperature: 57 F (14 C)
Dew Point: 44 F (7 C)
Relative Humidity: 62%
Pressure (altimeter): 30.03 in. Hg (1017 hPa)
ob: LFJL 032330Z AUTO 03005KT CAVOK 14/07 Q1017 NOSIG
cycle: 23

Station Type Date Time Source
LFJL TAF 2023/06/03 18:21 UTC NOAA

TAF LFJL 031700Z 0318/0418 04010KT CAVOK

Example: see airport list